createdAt,value
2019-01-14T00:01:47.622Z,35.50
2019-01-14T00:04:16.468Z,34.37
2019-01-14T00:06:47.477Z,38.03
2019-01-14T00:09:23.069Z,30.17
2019-01-14T00:11:47.375Z,33.27
2019-01-14T00:14:16.224Z,29.43
2019-01-14T00:16:45.077Z,37.00
2019-01-14T00:19:13.964Z,29.53
2019-01-14T00:21:42.844Z,30.67
2019-01-14T00:24:13.158Z,35.07
2019-01-14T00:26:42.425Z,47.57
2019-01-14T00:29:11.650Z,25.00
2019-01-14T00:31:40.618Z,31.00
2019-01-14T00:34:09.746Z,36.10
2019-01-14T00:36:38.644Z,28.90
2019-01-14T00:39:08.190Z,31.20
2019-01-14T00:41:37.145Z,29.50
2019-01-14T00:44:06.034Z,29.63
2019-01-14T00:46:34.952Z,27.53
2019-01-14T00:49:04.822Z,23.00
2019-01-14T00:51:33.757Z,34.83
2019-01-14T00:54:02.721Z,30.37
2019-01-14T00:56:31.709Z,30.57
2019-01-14T00:59:00.741Z,28.67
2019-01-14T01:01:29.628Z,24.93
2019-01-14T01:03:58.584Z,22.10
2019-01-14T01:06:27.447Z,24.30
2019-01-14T01:08:56.227Z,23.60
2019-01-14T01:11:25.110Z,24.67
2019-01-14T01:13:53.987Z,24.00
2019-01-14T01:16:22.889Z,27.43
2019-01-14T01:18:52.040Z,34.23
2019-01-14T01:21:20.900Z,25.03
2019-01-14T01:23:49.786Z,25.63
2019-01-14T01:26:18.640Z,20.03
2019-01-14T01:28:47.684Z,25.00
2019-01-14T01:31:17.822Z,27.10
2019-01-14T01:33:47.617Z,27.40
2019-01-14T01:36:16.485Z,23.13
2019-01-14T01:38:47.482Z,26.07
2019-01-14T01:41:16.503Z,20.97
2019-01-14T01:43:47.426Z,30.33
2019-01-14T01:46:16.322Z,21.10
2019-01-14T01:48:46.496Z,36.10
2019-01-14T01:51:15.448Z,19.77
2019-01-14T01:54:31.990Z,20.67
2019-01-14T01:57:01.099Z,22.60
2019-01-14T01:59:29.946Z,22.40
2019-01-14T02:01:58.786Z,28.50
2019-01-14T02:04:27.643Z,17.77
2019-01-14T02:06:57.705Z,20.53
2019-01-14T02:09:26.613Z,26.37
2019-01-14T02:11:55.479Z,28.17
2019-01-14T02:14:24.340Z,29.60
2019-01-14T02:16:53.386Z,23.70
2019-01-14T02:19:22.523Z,23.47
2019-01-14T02:21:51.521Z,24.40
2019-01-14T02:24:22.854Z,22.03
2019-01-14T02:26:51.846Z,23.57
2019-01-14T02:29:20.711Z,27.67
2019-01-14T02:31:49.559Z,22.07
2019-01-14T02:34:18.342Z,22.73
2019-01-14T02:36:48.571Z,25.80
2019-01-14T02:39:17.719Z,23.83
2019-01-14T02:41:46.496Z,22.23
2019-01-14T02:44:15.384Z,25.27
2019-01-14T02:46:44.490Z,23.77
2019-01-14T02:49:13.381Z,24.27
2019-01-14T02:51:42.866Z,13.30
2019-01-14T02:54:11.673Z,18.73
2019-01-14T02:56:40.549Z,28.67
2019-01-14T02:59:09.522Z,24.97
2019-01-14T03:01:38.371Z,17.37
2019-01-14T03:04:19.457Z,22.03
2019-01-14T03:06:57.602Z,23.07
2019-01-14T03:09:47.262Z,31.37
2019-01-14T03:12:16.435Z,18.83
2019-01-14T03:14:45.316Z,19.83
2019-01-14T03:17:14.012Z,17.50
2019-01-14T03:19:42.922Z,22.83
2019-01-14T03:22:16.175Z,17.83
2019-01-14T03:24:45.587Z,21.70
2019-01-14T03:27:16.748Z,21.60
2019-01-14T03:29:46.770Z,18.43
2019-01-14T03:32:18.529Z,12.03
2019-01-14T03:34:49.674Z,17.80
2019-01-14T03:37:18.451Z,18.20
2019-01-14T03:39:47.322Z,18.17
2019-01-14T03:42:16.193Z,19.00
2019-01-14T03:44:45.011Z,12.50
2019-01-14T03:47:13.880Z,13.40
2019-01-14T03:49:43.170Z,13.83
2019-01-14T03:52:12.115Z,12.37
2019-01-14T03:54:41.142Z,13.53
2019-01-14T03:57:11.532Z,15.20
2019-01-14T03:59:40.888Z,15.77
2019-01-14T04:02:10.288Z,9.10
2019-01-14T04:04:39.259Z,9.40
2019-01-14T04:07:13.575Z,10.87
2019-01-14T04:09:39.884Z,8.97
2019-01-14T04:12:08.796Z,11.53
2019-01-14T04:14:37.680Z,9.80
2019-01-14T04:17:06.527Z,10.83
2019-01-14T04:19:35.464Z,10.33
2019-01-14T04:22:07.104Z,14.30
2019-01-14T04:24:36.274Z,11.97
2019-01-14T04:27:05.455Z,13.37
2019-01-14T04:29:34.330Z,9.53
2019-01-14T04:32:03.748Z,16.70
2019-01-14T04:34:32.498Z,19.47
2019-01-14T04:37:01.799Z,11.03
2019-01-14T04:39:31.041Z,11.13
2019-01-14T04:42:00.235Z,13.70
2019-01-14T04:44:29.362Z,13.53
2019-01-14T04:46:58.356Z,16.27
2019-01-14T04:49:28.025Z,12.67
2019-01-14T04:51:57.046Z,14.20
2019-01-14T04:54:28.711Z,16.03
2019-01-14T04:56:57.597Z,16.20
2019-01-14T04:59:28.782Z,12.87
2019-01-14T05:01:57.697Z,15.77
2019-01-14T05:04:26.494Z,15.90
2019-01-14T05:06:57.424Z,11.73
2019-01-14T05:09:27.275Z,10.87
2019-01-14T05:11:57.451Z,17.07
2019-01-14T05:14:27.249Z,10.27
2019-01-14T05:16:58.159Z,16.00
2019-01-14T05:19:27.150Z,13.47
2019-01-14T05:21:58.377Z,14.03
2019-01-14T05:24:27.626Z,16.97
2019-01-14T05:26:56.512Z,12.43
2019-01-14T05:29:25.302Z,10.13
2019-01-14T05:31:54.159Z,15.00
2019-01-14T05:34:23.023Z,12.20
2019-01-14T05:36:51.982Z,16.17
2019-01-14T05:39:20.773Z,16.07
2019-01-14T05:41:49.719Z,18.30
2019-01-14T05:44:18.835Z,14.60
2019-01-14T05:46:47.738Z,21.20
2019-01-14T05:49:17.155Z,16.20
2019-01-14T05:51:47.191Z,14.23
2019-01-14T05:54:16.052Z,18.30
2019-01-14T05:56:44.934Z,17.00
2019-01-14T05:59:13.689Z,17.13
2019-01-14T06:01:44.539Z,20.33
2019-01-14T06:04:13.962Z,11.77
2019-01-14T06:06:42.899Z,22.03
2019-01-14T06:09:12.061Z,13.33
2019-01-14T06:11:41.371Z,20.07
2019-01-14T06:14:12.439Z,22.33
2019-01-14T06:16:42.362Z,19.13
2019-01-14T06:19:13.866Z,14.47
2019-01-14T06:21:44.586Z,19.57
2019-01-14T06:24:13.951Z,15.47
2019-01-14T06:26:45.661Z,15.80
2019-01-14T06:29:14.685Z,23.47
2019-01-14T06:31:43.846Z,19.77
2019-01-14T06:34:13.609Z,20.33
2019-01-14T06:36:42.562Z,14.70
2019-01-14T06:39:12.625Z,15.40
2019-01-14T06:41:41.910Z,14.03
2019-01-14T06:44:10.905Z,21.87
2019-01-14T06:46:40.717Z,24.10
2019-01-14T06:49:09.568Z,14.93
2019-01-14T06:51:38.301Z,22.97
2019-01-14T06:54:07.360Z,15.43
2019-01-14T06:56:36.779Z,21.13
2019-01-14T06:59:07.903Z,16.33
2019-01-14T07:01:37.830Z,14.80
2019-01-14T07:04:07.967Z,16.43
2019-01-14T07:06:36.884Z,13.40
2019-01-14T07:09:07.982Z,20.53
2019-01-14T07:11:39.969Z,17.33
2019-01-14T07:14:08.843Z,20.63
2019-01-14T07:16:37.801Z,15.70
2019-01-14T07:19:06.681Z,22.37
2019-01-14T07:21:35.562Z,26.00
2019-01-14T07:24:04.746Z,24.90
2019-01-14T07:26:33.702Z,16.40
2019-01-14T07:29:06.415Z,16.87
2019-01-14T07:31:35.456Z,14.13
2019-01-14T07:34:05.499Z,8.77
2019-01-14T07:36:34.443Z,7.27
2019-01-14T07:39:05.593Z,6.23
2019-01-14T07:41:34.584Z,11.87
2019-01-14T07:44:04.114Z,13.00
2019-01-14T07:46:33.086Z,14.50
2019-01-14T07:49:01.874Z,16.57
2019-01-14T07:51:32.268Z,15.67
2019-01-14T07:54:01.239Z,16.30
2019-01-14T07:56:30.162Z,12.33
2019-01-14T07:58:59.352Z,14.37
2019-01-14T08:01:28.253Z,14.83
2019-01-14T08:03:57.111Z,11.67
2019-01-14T08:06:28.139Z,17.43
2019-01-14T08:08:57.372Z,15.07
2019-01-14T08:11:31.860Z,13.40
2019-01-14T08:14:01.277Z,17.53
2019-01-14T08:16:32.453Z,15.40
2019-01-14T08:19:01.393Z,23.67
2019-01-14T08:21:30.546Z,18.63
2019-01-14T08:23:59.497Z,17.33
2019-01-14T08:26:29.514Z,17.60
2019-01-14T08:28:58.535Z,13.57
2019-01-14T08:31:27.437Z,11.17
2019-01-14T08:33:56.235Z,15.07
2019-01-14T08:36:25.136Z,10.63
2019-01-14T08:38:54.019Z,12.47
2019-01-14T08:41:25.329Z,15.40
2019-01-14T08:43:57.999Z,12.13
2019-01-14T08:46:27.409Z,13.67
2019-01-14T08:48:56.261Z,13.33
2019-01-14T08:51:26.859Z,12.50
2019-01-14T08:53:55.734Z,12.50
2019-01-14T08:56:24.651Z,15.80
2019-01-14T08:58:53.537Z,14.10
2019-01-14T09:01:22.398Z,12.80
2019-01-14T09:03:51.298Z,16.40
2019-01-14T09:06:20.223Z,15.33
2019-01-14T09:08:49.195Z,9.80
2019-01-14T09:11:18.035Z,13.63
2019-01-14T09:13:46.941Z,16.73
2019-01-14T09:16:15.820Z,11.00
2019-01-14T09:18:44.984Z,19.80
2019-01-14T09:21:13.861Z,10.03
2019-01-14T09:23:44.034Z,16.20
2019-01-14T09:26:14.086Z,17.80
2019-01-14T09:28:43.596Z,13.07
2019-01-14T09:31:12.549Z,12.53
2019-01-14T09:33:41.488Z,13.90
2019-01-14T09:36:10.471Z,12.70
2019-01-14T09:38:39.370Z,13.03
2019-01-14T09:41:08.229Z,12.97
2019-01-14T09:43:37.437Z,15.37
2019-01-14T09:46:06.824Z,10.27
2019-01-14T09:48:35.782Z,12.77
2019-01-14T09:51:05.072Z,19.63
2019-01-14T09:53:34.009Z,13.53
2019-01-14T09:56:02.905Z,17.77
2019-01-14T09:58:31.774Z,12.07
2019-01-14T10:01:00.681Z,17.23
2019-01-14T10:03:29.624Z,17.03
2019-01-14T10:05:58.578Z,13.67
2019-01-14T10:08:27.526Z,17.37
2019-01-14T10:10:56.406Z,13.20
2019-01-14T10:13:25.349Z,14.43
2019-01-14T10:15:54.466Z,16.43
2019-01-14T10:18:25.762Z,17.17
2019-01-14T10:20:56.695Z,12.67
2019-01-14T10:23:25.653Z,19.67
2019-01-14T10:25:54.643Z,12.23
2019-01-14T10:28:23.591Z,9.83
2019-01-14T10:30:54.779Z,12.83
2019-01-14T10:33:23.872Z,13.53
2019-01-14T10:35:54.079Z,15.20
2019-01-14T10:38:23.097Z,14.03
2019-01-14T10:40:51.991Z,14.33
2019-01-14T10:43:23.525Z,11.40
2019-01-14T10:45:53.951Z,13.67
2019-01-14T10:48:23.644Z,14.90
2019-01-14T10:50:52.630Z,13.50
2019-01-14T10:53:22.269Z,14.73
2019-01-14T10:55:51.282Z,14.30
2019-01-14T10:58:20.286Z,13.57
2019-01-14T11:00:49.260Z,16.40
2019-01-14T11:03:18.139Z,13.60
2019-01-14T11:05:49.596Z,14.63
2019-01-14T11:09:05.781Z,12.37
2019-01-14T11:11:31.532Z,12.90
2019-01-14T11:14:00.609Z,13.80
2019-01-14T11:16:29.507Z,11.60
2019-01-14T11:19:16.370Z,10.97
2019-01-14T11:21:45.255Z,15.07
2019-01-14T11:24:14.167Z,10.47
2019-01-14T11:26:43.041Z,12.20
2019-01-14T11:29:12.650Z,7.53
2019-01-14T11:31:41.545Z,12.83
2019-01-14T11:34:10.454Z,7.80
2019-01-14T11:36:39.382Z,8.20
2019-01-14T11:39:17.424Z,6.27
2019-01-14T11:41:46.365Z,11.10
2019-01-14T11:44:15.311Z,6.37
2019-01-14T11:46:44.109Z,9.23
2019-01-14T11:49:13.011Z,4.97
2019-01-14T11:51:41.925Z,11.10
2019-01-14T11:54:10.860Z,6.23
2019-01-14T11:56:39.852Z,12.63
2019-01-14T11:59:08.724Z,6.33
2019-01-14T12:01:37.677Z,7.33
2019-01-14T12:04:06.613Z,4.47
2019-01-14T12:06:35.473Z,9.13
2019-01-14T12:09:12.193Z,9.90
2019-01-14T12:11:38.861Z,8.33
2019-01-14T12:14:07.804Z,8.70
2019-01-14T12:16:36.679Z,5.83
2019-01-14T12:19:05.556Z,4.40
2019-01-14T12:21:34.479Z,4.83
2019-01-14T12:24:04.558Z,6.37
2019-01-14T12:26:33.563Z,2.80
2019-01-14T12:29:05.111Z,8.57
2019-01-14T12:31:34.936Z,9.90
2019-01-14T13:34:35.144Z,6.67
2019-01-14T13:37:04.158Z,9.83
2019-01-14T13:39:52.515Z,10.30
2019-01-14T13:42:19.272Z,6.63
2019-01-14T13:44:48.218Z,8.20
2019-01-14T13:47:17.161Z,10.40
2019-01-14T13:49:46.228Z,10.73
2019-01-14T13:52:15.094Z,12.77
2019-01-14T13:54:44.011Z,13.60
2019-01-14T13:57:13.046Z,13.57
2019-01-14T13:59:41.950Z,12.07
2019-01-14T14:05:38.352Z,8.47
2019-01-14T14:08:07.468Z,7.00
2019-01-14T14:10:36.422Z,14.43
2019-01-14T14:13:05.414Z,12.73
2019-01-14T14:15:34.499Z,10.83
2019-01-14T14:18:03.564Z,12.97
2019-01-14T14:20:32.518Z,10.87
2019-01-14T14:23:01.478Z,10.13
2019-01-14T14:25:30.469Z,19.63
2019-01-14T14:27:59.454Z,8.57
2019-01-14T14:30:39.475Z,12.53
2019-01-14T14:33:08.471Z,10.20
2019-01-14T14:35:37.403Z,7.73
2019-01-14T14:38:07.869Z,10.80
2019-01-14T14:40:36.756Z,13.87
2019-01-14T14:43:05.741Z,8.87
2019-01-14T14:45:34.785Z,10.30
2019-01-14T14:48:03.823Z,9.40
2019-01-14T14:50:32.729Z,15.27
2019-01-14T14:53:01.560Z,9.23
2019-01-14T14:55:30.580Z,11.27
2019-01-14T14:57:59.493Z,14.07
2019-01-14T15:00:28.487Z,16.47
2019-01-14T15:02:57.516Z,17.10
2019-01-14T15:05:26.381Z,8.90
2019-01-14T15:07:55.360Z,13.10
2019-01-14T15:10:24.433Z,8.60
2019-01-14T15:12:53.514Z,9.73
2019-01-14T15:15:24.179Z,8.27
2019-01-14T15:17:53.177Z,11.17
2019-01-14T15:20:23.692Z,10.07
2019-01-14T15:23:40.249Z,21.63
2019-01-14T15:26:09.512Z,6.93
2019-01-14T15:28:38.360Z,10.90
2019-01-14T15:31:07.333Z,17.23
2019-01-14T15:33:36.275Z,12.27
2019-01-14T15:36:06.759Z,13.97
2019-01-14T15:38:35.675Z,15.00
2019-01-14T15:41:04.645Z,11.23
2019-01-14T15:43:33.458Z,15.80
2019-01-14T15:46:02.429Z,16.00
2019-01-14T15:48:31.440Z,17.50
2019-01-14T15:51:00.376Z,12.43
2019-01-14T15:53:29.389Z,13.37
2019-01-14T15:56:04.293Z,15.27
2019-01-14T15:58:33.339Z,17.33
2019-01-14T16:01:02.406Z,14.77
2019-01-14T16:03:31.340Z,11.27
2019-01-14T16:06:00.312Z,12.60
2019-01-14T16:08:29.310Z,19.03
2019-01-14T16:10:58.174Z,10.57
2019-01-14T16:13:27.078Z,11.13
2019-01-14T16:15:55.892Z,17.10
2019-01-14T16:18:24.769Z,18.60
2019-01-14T16:20:53.662Z,9.53
2019-01-14T16:23:22.558Z,16.40
2019-01-14T16:25:51.573Z,14.00
2019-01-14T16:28:20.472Z,17.73
2019-01-14T16:30:49.391Z,16.70
2019-01-14T16:33:18.319Z,14.70
2019-01-14T16:35:47.206Z,14.30
2019-01-14T16:38:16.176Z,23.40
2019-01-14T16:40:45.124Z,17.20
2019-01-14T16:43:14.157Z,19.40
2019-01-14T16:49:23.229Z,13.23
2019-01-14T16:51:52.338Z,19.97
2019-01-14T16:54:21.433Z,14.37
2019-01-14T16:57:26.180Z,11.47
2019-01-14T16:59:55.128Z,15.40
2019-01-14T17:02:24.688Z,13.63
2019-01-14T17:04:53.685Z,15.60
2019-01-14T17:07:22.748Z,20.47
2019-01-14T17:09:51.769Z,13.43
2019-01-14T17:12:20.866Z,15.27
2019-01-14T17:14:49.820Z,19.73
2019-01-14T17:17:18.896Z,13.57
2019-01-14T17:19:47.879Z,14.33
2019-01-14T17:22:18.353Z,12.40
2019-01-14T17:24:47.382Z,17.03
2019-01-14T17:27:16.354Z,20.77
2019-01-14T17:29:45.288Z,14.63
2019-01-14T17:32:14.157Z,16.53
2019-01-14T17:34:43.115Z,18.70
2019-01-14T17:37:12.016Z,12.30
2019-01-14T17:39:41.029Z,14.03
2019-01-14T17:42:10.427Z,20.23
2019-01-14T17:44:39.271Z,13.87
2019-01-14T17:47:08.283Z,14.63
2019-01-14T17:49:43.046Z,16.87
2019-01-14T17:52:12.042Z,16.80
2019-01-14T17:54:41.026Z,23.50
2019-01-14T17:57:10.061Z,14.63
2019-01-14T17:59:59.758Z,15.53
2019-01-14T18:02:28.725Z,19.60
2019-01-14T18:04:57.783Z,13.63
2019-01-14T18:07:26.818Z,10.70
2019-01-14T18:09:56.017Z,15.27
2019-01-14T18:12:25.194Z,21.23
2019-01-14T18:14:54.240Z,17.63
2019-01-14T18:17:23.303Z,19.63
2019-01-14T18:19:52.282Z,13.90
2019-01-14T18:22:21.311Z,9.07
2019-01-14T18:24:50.349Z,12.30
2019-01-14T18:27:19.407Z,18.50
2019-01-14T18:29:48.662Z,11.10
2019-01-14T18:32:17.660Z,15.43
2019-01-14T18:34:46.927Z,15.93
2019-01-14T18:37:15.904Z,16.20
2019-01-14T18:39:53.908Z,14.87
2019-01-14T18:42:22.974Z,14.50
2019-01-14T18:44:52.076Z,13.63
2019-01-14T18:47:21.137Z,16.37
2019-01-14T18:49:50.241Z,16.57
2019-01-14T18:52:19.484Z,14.70
2019-01-14T18:54:49.891Z,10.70
2019-01-14T18:57:19.005Z,16.10
2019-01-14T18:59:48.253Z,13.53
2019-01-14T19:02:17.653Z,11.73
2019-01-14T19:04:46.851Z,12.97
2019-01-14T19:07:15.932Z,14.50
2019-01-14T19:09:45.327Z,11.03
2019-01-14T19:12:14.638Z,16.93
2019-01-14T19:14:43.501Z,15.83
2019-01-14T19:17:12.668Z,10.80
2019-01-14T19:19:41.914Z,12.80
2019-01-14T19:22:10.972Z,11.47
2019-01-14T19:24:39.986Z,10.07
2019-01-14T19:27:16.281Z,15.70
2019-01-14T19:29:39.727Z,15.10
2019-01-14T19:32:08.839Z,12.60
2019-01-14T19:34:38.061Z,19.00
2019-01-14T19:37:07.230Z,16.03
2019-01-14T19:39:36.519Z,15.13
2019-01-14T19:42:05.617Z,14.27
2019-01-14T19:44:34.593Z,19.33
2019-01-14T19:47:03.579Z,14.77
2019-01-14T19:49:33.608Z,17.57
2019-01-14T19:52:02.973Z,16.77
2019-01-14T19:54:32.327Z,17.90
2019-01-14T19:57:01.458Z,13.60
2019-01-14T19:59:30.732Z,12.30
2019-01-14T20:02:00.724Z,18.67
2019-01-14T20:04:30.171Z,18.00
2019-01-14T20:06:59.441Z,19.83
2019-01-14T20:09:28.928Z,13.57
2019-01-14T20:11:58.196Z,14.33
2019-01-14T20:14:27.364Z,20.50
2019-01-14T20:16:56.545Z,16.63
2019-01-14T20:19:26.072Z,15.37
2019-01-14T20:21:55.247Z,16.37
2019-01-14T20:24:24.609Z,18.97
2019-01-14T20:26:53.654Z,16.17
2019-01-14T20:29:22.915Z,20.93
2019-01-14T20:31:52.045Z,19.00
2019-01-14T20:34:21.381Z,17.00
2019-01-14T20:36:50.515Z,16.63
2019-01-14T20:39:20.344Z,15.97
2019-01-14T20:41:49.937Z,16.70
2019-01-14T20:44:19.376Z,21.47
2019-01-14T20:46:49.098Z,23.20
2019-01-14T20:49:18.934Z,21.40
2019-01-14T20:51:48.306Z,15.97
2019-01-14T20:54:17.594Z,19.77
2019-01-14T20:57:25.358Z,18.43
2019-01-14T20:59:54.687Z,21.53
2019-01-14T21:02:42.061Z,16.53
2019-01-14T21:05:11.469Z,20.80
2019-01-14T21:07:40.766Z,23.23
2019-01-14T21:10:11.013Z,22.90
2019-01-14T21:12:40.337Z,25.73
2019-01-14T21:15:10.202Z,24.17
2019-01-14T21:17:39.453Z,15.90
2019-01-14T21:20:12.900Z,18.73
2019-01-14T21:22:42.237Z,19.77
2019-01-14T21:25:11.997Z,18.20
2019-01-14T21:27:47.213Z,19.50
2019-01-14T21:30:21.478Z,20.50
2019-01-14T21:32:50.796Z,16.67
2019-01-14T21:35:19.967Z,18.60
2019-01-14T21:37:50.093Z,17.20
2019-01-14T21:40:19.481Z,15.03
2019-01-14T21:42:48.931Z,18.70
2019-01-14T21:45:18.152Z,17.43
2019-01-14T21:47:47.387Z,23.83
2019-01-14T21:50:17.978Z,17.80
2019-01-14T21:52:47.208Z,17.83
2019-01-14T21:55:20.549Z,21.70
2019-01-14T21:57:49.601Z,13.10
2019-01-14T22:00:20.450Z,24.60
2019-01-14T22:02:49.428Z,16.57
2019-01-14T22:05:18.429Z,22.97
2019-01-14T22:08:11.224Z,16.80
2019-01-14T22:10:40.109Z,15.00
2019-01-14T22:13:09.096Z,17.57
2019-01-14T22:15:38.275Z,13.87
2019-01-14T22:18:07.330Z,17.57
2019-01-14T22:20:36.385Z,13.97
2019-01-14T22:23:05.461Z,18.80
2019-01-14T22:25:34.693Z,11.70
2019-01-14T22:28:03.719Z,24.33
2019-01-14T22:30:34.231Z,19.73
2019-01-14T22:33:03.208Z,20.27
2019-01-14T22:35:32.102Z,20.50
2019-01-14T22:38:01.642Z,13.40
2019-01-14T22:40:30.648Z,15.83
2019-01-14T22:42:59.675Z,16.97
2019-01-14T22:45:28.612Z,21.37
2019-01-14T22:47:57.588Z,22.10
2019-01-14T22:50:26.470Z,18.73
2019-01-14T22:52:55.463Z,16.87
2019-01-14T22:55:24.440Z,16.77
2019-01-14T22:57:53.744Z,20.33
2019-01-14T23:01:13.928Z,14.93
2019-01-14T23:03:45.306Z,20.83
2019-01-14T23:06:14.237Z,23.40
2019-01-14T23:08:43.646Z,20.00
2019-01-14T23:11:12.853Z,24.03
2019-01-14T23:13:41.852Z,18.30
2019-01-14T23:16:10.809Z,22.20
2019-01-14T23:18:39.758Z,22.80
2019-01-14T23:21:09.062Z,17.67
2019-01-14T23:23:37.962Z,18.63
2019-01-14T23:26:06.943Z,23.03
2019-01-14T23:28:35.850Z,18.47
2019-01-14T23:31:04.858Z,19.17
2019-01-14T23:33:33.807Z,14.53
2019-01-14T23:36:02.793Z,18.00
2019-01-14T23:38:31.728Z,20.03
2019-01-14T23:41:00.602Z,16.53
2019-01-14T23:43:29.480Z,16.43
2019-01-14T23:45:58.455Z,20.47
2019-01-14T23:48:27.338Z,13.50
2019-01-14T23:50:56.217Z,15.00
2019-01-14T23:53:25.142Z,14.33
2019-01-14T23:55:54.020Z,15.27
2019-01-14T23:58:22.918Z,18.37
